Time;durP1;ratioP1;P1;durP2;ratioP2;P2;SDS_P1;SDS_P2;PMS_P1;PMS_P2;Temp;Humidity;BMP_temperature;BMP_pressure;BME280_temperature;BME280_humidity;BME280_pressure;Samples;Min_cycle;Max_cycle;Signal;HPM_P1;HPM_P2
2023/03/02 00:02:21;;;;;;;5.57;5.07;;;;;;;;;;5145850;27;20046;-56
2023/03/02 00:04:54;;;;;;;5.45;4.95;;;;;;;;;;5145984;27;20080;-56
2023/03/02 00:07:23;;;;;;;4.80;4.40;;;;;;;;;;5145535;27;20058;-56
2023/03/02 00:09:49;;;;;;;5.38;4.90;;;;;;;;;;5146483;27;20038;-56
2023/03/02 00:12:15;;;;;;;5.40;4.90;;;;;;;;;;5145371;27;20578;-56
2023/03/02 00:14:41;;;;;;;5.35;4.88;;;;;;;;;;5145078;27;20485;-56
2023/03/02 00:17:09;;;;;;;5.18;4.78;;;;;;;;;;5145894;27;20043;-56
2023/03/02 00:19:35;;;;;;;4.90;4.50;;;;;;;;;;5145897;27;20406;-56
2023/03/02 00:22:01;;;;;;;5.00;4.60;;;;;;;;;;5126574;27;20527;-56
2023/03/02 00:24:27;;;;;;;5.40;4.72;;;;;;;;;;5145371;27;20130;-56
2023/03/02 00:26:53;;;;;;;7.22;6.53;;;;;;;;;;5144574;27;20090;-56
2023/03/02 00:29:19;;;;;;;5.28;4.88;;;;;;;;;;5145430;27;20082;-59
2023/03/02 00:31:45;;;;;;;5.90;5.07;;;;;;;;;;5145965;27;20406;-58
2023/03/02 00:34:11;;;;;;;5.47;4.95;;;;;;;;;;5144932;27;20047;-56
2023/03/02 00:36:37;;;;;;;4.97;4.50;;;;;;;;;;5145989;27;20050;-57
2023/03/02 00:39:03;;;;;;;5.95;4.97;;;;;;;;;;5145365;27;20051;-56
2023/03/02 00:41:29;;;;;;;5.53;5.03;;;;;;;;;;5144690;27;20042;-58
2023/03/02 00:43:55;;;;;;;4.80;4.40;;;;;;;;;;5145560;27;20103;-56
2023/03/02 00:46:23;;;;;;;4.68;4.22;;;;;;;;;;5146009;27;20039;-56
2023/03/02 00:48:49;;;;;;;4.43;4.13;;;;;;;;;;5144922;27;20043;-56
2023/03/02 00:51:15;;;;;;;3.33;3.03;;;;;;;;;;5145131;27;20046;-56
2023/03/02 00:53:42;;;;;;;4.43;4.03;;;;;;;;;;5146827;27;20568;-56
2023/03/02 00:56:08;;;;;;;3.95;3.58;;;;;;;;;;5148817;27;20153;-56
2023/03/02 00:58:34;;;;;;;3.65;2.90;;;;;;;;;;5149652;27;20039;-56
2023/03/02 01:01:05;;;;;;;3.72;3.30;;;;;;;;;;5149408;27;20113;-56
2023/03/02 01:03:31;;;;;;;2.92;2.72;;;;;;;;;;5148110;27;20064;-56
2023/03/02 01:05:57;;;;;;;3.05;2.75;;;;;;;;;;5148827;27;20058;-56
2023/03/02 01:08:24;;;;;;;3.20;3.00;;;;;;;;;;5148930;27;20050;-56
2023/03/02 01:10:51;;;;;;;3.72;3.42;;;;;;;;;;5130327;27;20050;-55
2023/03/02 01:13:17;;;;;;;3.30;3.00;;;;;;;;;;5148401;27;20134;-56
2023/03/02 01:15:43;;;;;;;4.05;3.35;;;;;;;;;;5148912;27;20102;-56
2023/03/02 01:18:09;;;;;;;2.60;2.40;;;;;;;;;;5147826;27;20077;-56
2023/03/02 01:20:35;;;;;;;3.10;2.90;;;;;;;;;;5148915;27;20043;-56
2023/03/02 01:23:01;;;;;;;2.25;2.05;;;;;;;;;;5148499;27;20405;-56
2023/03/02 01:25:27;;;;;;;2.30;2.10;;;;;;;;;;5148434;27;20390;-56
2023/03/02 01:27:53;;;;;;;2.80;2.60;;;;;;;;;;5148862;27;20130;-56
2023/03/02 01:30:19;;;;;;;2.58;2.38;;;;;;;;;;5129399;27;20891;-56
2023/03/02 01:32:45;;;;;;;2.53;2.33;;;;;;;;;;5148412;27;20404;-57
2023/03/02 01:35:11;;;;;;;2.50;2.30;;;;;;;;;;5147995;27;20517;-56
2023/03/02 01:37:37;;;;;;;5.18;3.35;;;;;;;;;;5148180;27;20131;-56
2023/03/02 01:40:05;;;;;;;3.25;2.97;;;;;;;;;;5148063;27;20131;-56
2023/03/02 01:42:37;;;;;;;3.80;3.42;;;;;;;;;;5148561;27;20047;-56
2023/03/02 01:45:03;;;;;;;3.73;3.43;;;;;;;;;;5147798;27;20050;-56
2023/03/02 01:47:34;;;;;;;4.97;4.50;;;;;;;;;;5148234;27;20100;-56
2023/03/02 01:50:18;;;;;;;6.10;5.50;;;;;;;;;;5148364;27;20413;-55
2023/03/02 01:52:44;;;;;;;5.10;4.63;;;;;;;;;;5147726;27;20099;-56
2023/03/02 01:55:12;;;;;;;6.47;5.88;;;;;;;;;;5148127;27;20039;-57
2023/03/02 01:57:42;;;;;;;6.03;5.43;;;;;;;;;;5148231;27;20034;-56
2023/03/02 02:00:11;;;;;;;6.22;5.63;;;;;;;;;;5147479;27;20058;-56
2023/03/02 02:02:40;;;;;;;6.75;6.03;;;;;;;;;;5147767;27;20400;-55
2023/03/02 02:05:07;;;;;;;6.88;6.28;;;;;;;;;;5146912;27;20611;-57
2023/03/02 02:07:33;;;;;;;7.15;6.45;;;;;;;;;;5128498;27;20054;-56
2023/03/02 02:09:59;;;;;;;7.28;6.38;;;;;;;;;;5147452;27;20046;-57
2023/03/02 02:12:25;;;;;;;7.93;7.13;;;;;;;;;;5147001;27;20047;-56
2023/03/02 02:14:52;;;;;;;7.82;6.68;;;;;;;;;;5129792;27;20504;-57
2023/03/02 02:17:18;;;;;;;9.23;7.57;;;;;;;;;;5129184;27;20058;-58
2023/03/02 02:19:49;;;;;;;9.23;8.20;;;;;;;;;;5146823;27;20049;-57
2023/03/02 02:22:21;;;;;;;12.43;9.75;;;;;;;;;;5147200;27;20095;-57
2023/03/02 02:24:52;;;;;;;10.27;9.13;;;;;;;;;;5147668;27;20054;-57
2023/03/02 02:27:18;;;;;;;11.27;9.18;;;;;;;;;;5146637;27;20382;-57
2023/03/02 02:29:47;;;;;;;10.57;8.68;;;;;;;;;;5147303;27;20046;-59
2023/03/02 02:32:18;;;;;;;10.75;9.05;;;;;;;;;;5147737;27;20039;-59
2023/03/02 02:34:53;;;;;;;13.27;8.82;;;;;;;;;;5147422;27;20074;-57
2023/03/02 02:37:28;;;;;;;9.43;7.70;;;;;;;;;;5148236;27;20046;-60
2023/03/02 02:39:54;;;;;;;10.30;8.32;;;;;;;;;;5147566;27;20049;-58
2023/03/02 02:42:23;;;;;;;7.80;7.00;;;;;;;;;;5146240;27;20035;-57
2023/03/02 02:44:51;;;;;;;10.88;9.10;;;;;;;;;;5147408;27;20035;-57
2023/03/02 02:47:19;;;;;;;13.50;9.80;;;;;;;;;;5147096;27;20085;-57
2023/03/02 02:49:46;;;;;;;12.32;10.13;;;;;;;;;;5146910;27;20489;-56
2023/03/02 02:52:14;;;;;;;14.30;10.50;;;;;;;;;;5146360;27;20060;-57
2023/03/02 02:54:41;;;;;;;12.48;10.77;;;;;;;;;;5146081;27;20035;-56
2023/03/02 02:57:09;;;;;;;12.57;9.88;;;;;;;;;;5146541;27;20066;-55
2023/03/02 02:59:38;;;;;;;9.38;8.38;;;;;;;;;;5147367;27;20046;-55
2023/03/02 03:02:04;;;;;;;12.93;9.00;;;;;;;;;;5145709;27;20046;-55
2023/03/02 03:04:31;;;;;;;10.90;9.32;;;;;;;;;;5146344;27;20388;-54
2023/03/02 03:06:59;;;;;;;11.30;9.55;;;;;;;;;;5145184;27;20107;-57
2023/03/02 03:09:25;;;;;;;13.77;10.48;;;;;;;;;;5145159;27;20078;-57
2023/03/02 03:11:53;;;;;;;13.85;10.77;;;;;;;;;;5146354;27;20753;-56
2023/03/02 03:14:24;;;;;;;11.10;9.15;;;;;;;;;;5146492;27;20046;-57
2023/03/02 03:16:50;;;;;;;11.67;8.83;;;;;;;;;;5145755;27;20051;-57
2023/03/02 03:19:24;;;;;;;9.15;7.22;;;;;;;;;;5146490;27;20355;-57
2023/03/02 03:21:51;;;;;;;11.00;9.05;;;;;;;;;;5146884;27;20103;-57
2023/03/02 03:24:18;;;;;;;10.88;8.80;;;;;;;;;;5145851;27;20046;-57
2023/03/02 03:26:44;;;;;;;12.75;10.13;;;;;;;;;;5146721;27;20035;-57
2023/03/02 03:29:10;;;;;;;15.05;11.38;;;;;;;;;;5146076;27;20921;-57
2023/03/02 03:31:36;;;;;;;13.77;10.90;;;;;;;;;;5145855;27;20046;-55
2023/03/02 03:34:03;;;;;;;16.30;11.32;;;;;;;;;;5146477;27;20046;-57
2023/03/02 03:36:29;;;;;;;14.60;10.73;;;;;;;;;;5146333;27;20039;-57
2023/03/02 03:38:55;;;;;;;16.45;11.52;;;;;;;;;;5145559;27;20440;-57
2023/03/02 03:41:21;;;;;;;13.02;10.48;;;;;;;;;;5147147;27;20043;-57
2023/03/02 03:43:48;;;;;;;13.63;10.35;;;;;;;;;;5146398;27;20179;-57
2023/03/02 03:46:14;;;;;;;12.95;9.98;;;;;;;;;;5145796;27;20039;-57
2023/03/02 03:48:40;;;;;;;13.57;10.65;;;;;;;;;;5145922;27;20045;-57
2023/03/02 03:51:06;;;;;;;11.88;8.90;;;;;;;;;;5145390;27;20035;-57
2023/03/02 03:53:32;;;;;;;12.85;9.10;;;;;;;;;;5147019;27;20692;-59
2023/03/02 03:55:59;;;;;;;14.55;10.90;;;;;;;;;;5146266;27;20035;-57
2023/03/02 03:58:26;;;;;;;15.02;11.32;;;;;;;;;;5126856;27;20485;-57
2023/03/02 04:00:52;;;;;;;16.08;12.23;;;;;;;;;;5146266;27;20111;-59
2023/03/02 04:03:18;;;;;;;15.93;11.85;;;;;;;;;;5145994;27;20095;-57
2023/03/02 04:05:45;;;;;;;14.40;10.75;;;;;;;;;;5145255;27;20126;-57
2023/03/02 04:08:11;;;;;;;16.38;12.00;;;;;;;;;;5145673;27;20051;-57
2023/03/02 04:10:37;;;;;;;17.40;11.32;;;;;;;;;;5146281;27;20038;-57
2023/03/02 04:13:03;;;;;;;16.15;12.38;;;;;;;;;;5145179;27;20065;-57
2023/03/02 04:15:29;;;;;;;29.00;14.68;;;;;;;;;;5145628;27;20039;-59
2023/03/02 04:17:55;;;;;;;15.07;11.70;;;;;;;;;;5145648;27;20095;-56
2023/03/02 04:20:22;;;;;;;14.65;11.32;;;;;;;;;;5145239;27;20043;-57
2023/03/02 04:22:49;;;;;;;13.60;9.82;;;;;;;;;;5146169;27;20493;-56
2023/03/02 04:25:18;;;;;;;13.88;10.45;;;;;;;;;;5145978;27;20091;-57
2023/03/02 04:27:45;;;;;;;16.13;11.02;;;;;;;;;;5145219;27;20145;-56
2023/03/02 04:30:12;;;;;;;15.40;10.55;;;;;;;;;;5148656;27;20472;-58
2023/03/02 04:32:38;;;;;;;19.83;11.32;;;;;;;;;;5149745;27;20042;-57
2023/03/02 04:35:04;;;;;;;15.23;11.35;;;;;;;;;;5149097;27;20564;-59
2023/03/02 04:37:30;;;;;;;15.90;10.57;;;;;;;;;;5149793;27;20099;-59
2023/03/02 04:39:56;;;;;;;15.80;10.57;;;;;;;;;;5148981;27;20440;-56
2023/03/02 04:42:23;;;;;;;13.30;9.65;;;;;;;;;;5149316;27;20512;-57
2023/03/02 04:44:49;;;;;;;13.25;9.80;;;;;;;;;;5150060;27;20043;-57
2023/03/02 04:47:15;;;;;;;15.45;10.30;;;;;;;;;;5148740;27;20169;-57
2023/03/02 04:49:41;;;;;;;13.68;10.00;;;;;;;;;;5149584;27;20786;-57
2023/03/02 04:52:07;;;;;;;13.10;8.68;;;;;;;;;;5149294;27;20047;-57
2023/03/02 04:54:33;;;;;;;13.50;9.90;;;;;;;;;;5148780;27;20043;-56
2023/03/02 04:56:59;;;;;;;17.08;10.65;;;;;;;;;;5149054;27;20047;-57
2023/03/02 04:59:26;;;;;;;17.10;12.30;;;;;;;;;;5148895;27;20216;-57
2023/03/02 05:01:54;;;;;;;16.70;11.43;;;;;;;;;;5148003;27;20559;-56
2023/03/02 05:04:20;;;;;;;14.50;10.40;;;;;;;;;;5148927;27;20060;-57
2023/03/02 05:06:46;;;;;;;16.73;10.93;;;;;;;;;;5148397;27;20424;-57
2023/03/02 05:09:12;;;;;;;22.42;12.02;;;;;;;;;;5148067;27;21013;-57
2023/03/02 05:11:38;;;;;;;17.15;11.25;;;;;;;;;;5148823;27;20081;-56
2023/03/02 05:14:05;;;;;;;15.50;9.20;;;;;;;;;;5148928;27;20043;-57
2023/03/02 05:16:33;;;;;;;14.90;9.73;;;;;;;;;;5148080;27;20046;-57
2023/03/02 05:18:59;;;;;;;19.80;12.45;;;;;;;;;;5148361;27;20046;-57
2023/03/02 05:21:25;;;;;;;20.75;12.43;;;;;;;;;;5148978;27;20043;-56
2023/03/02 05:23:52;;;;;;;18.98;12.38;;;;;;;;;;5148675;27;20045;-57
2023/03/02 05:26:18;;;;;;;41.42;13.90;;;;;;;;;;5148853;27;20514;-57
2023/03/02 05:28:44;;;;;;;24.00;14.02;;;;;;;;;;5148720;27;20083;-58
2023/03/02 05:31:26;;;;;;;24.92;13.75;;;;;;;;;;5147745;27;20087;-57
2023/03/02 05:33:53;;;;;;;27.02;14.00;;;;;;;;;;5148973;27;20055;-57
2023/03/02 05:36:19;;;;;;;25.92;14.55;;;;;;;;;;5148429;27;20434;-57
2023/03/02 05:38:45;;;;;;;24.45;14.48;;;;;;;;;;5148998;27;20042;-57
2023/03/02 05:41:10;;;;;;;23.60;13.75;;;;;;;;;;5147254;27;20042;-57
2023/03/02 05:43:37;;;;;;;26.10;15.02;;;;;;;;;;5147756;27;20501;-57
2023/03/02 05:46:03;;;;;;;28.25;15.55;;;;;;;;;;5148154;27;20039;-57
2023/03/02 05:48:29;;;;;;;34.78;16.50;;;;;;;;;;5148370;27;20509;-57
2023/03/02 05:50:55;;;;;;;39.85;20.00;;;;;;;;;;5147579;27;20499;-57
2023/03/02 05:53:21;;;;;;;35.63;19.55;;;;;;;;;;5148112;27;20575;-58
2023/03/02 05:55:47;;;;;;;44.28;22.33;;;;;;;;;;5148040;27;20058;-57
2023/03/02 05:58:15;;;;;;;51.17;24.85;;;;;;;;;;5146777;27;20505;-56
2023/03/02 06:00:41;;;;;;;47.53;22.45;;;;;;;;;;5147660;27;20043;-57
2023/03/02 06:03:08;;;;;;;50.72;23.95;;;;;;;;;;5147822;27;20042;-59
2023/03/02 06:05:34;;;;;;;51.05;22.63;;;;;;;;;;5147241;27;20057;-58
2023/03/02 06:08:00;;;;;;;48.30;22.20;;;;;;;;;;5147308;27;20046;-57
2023/03/02 06:10:26;;;;;;;50.03;24.40;;;;;;;;;;5147682;27;20049;-57
2023/03/02 06:12:52;;;;;;;54.83;26.13;;;;;;;;;;5147327;27;20046;-57
2023/03/02 06:15:18;;;;;;;46.58;21.77;;;;;;;;;;5147753;27;20073;-56
2023/03/02 06:17:44;;;;;;;42.58;20.95;;;;;;;;;;5147315;27;20077;-57
2023/03/02 06:20:12;;;;;;;41.35;21.08;;;;;;;;;;5146246;27;20050;-57
2023/03/02 06:22:43;;;;;;;40.72;20.08;;;;;;;;;;5147484;27;20391;-57
2023/03/02 06:25:10;;;;;;;39.92;20.92;;;;;;;;;;5147044;27;20146;-57
2023/03/02 06:27:37;;;;;;;37.95;18.67;;;;;;;;;;5146763;27;20127;-59
2023/03/02 06:30:03;;;;;;;36.25;18.42;;;;;;;;;;5147467;27;20046;-57
2023/03/02 06:32:32;;;;;;;38.97;20.23;;;;;;;;;;5146758;27;20034;-57
2023/03/02 06:34:59;;;;;;;37.70;19.92;;;;;;;;;;5147567;27;20057;-57
2023/03/02 06:37:27;;;;;;;37.92;19.35;;;;;;;;;;5147314;27;20112;-57
2023/03/02 06:39:53;;;;;;;35.78;18.30;;;;;;;;;;5146354;27;20093;-58
2023/03/02 06:42:19;;;;;;;35.70;18.67;;;;;;;;;;5147421;27;20043;-57
2023/03/02 06:44:45;;;;;;;35.42;19.67;;;;;;;;;;5147082;27;20103;-56
2023/03/02 06:47:11;;;;;;;33.05;18.38;;;;;;;;;;5146389;27;20047;-57
2023/03/02 06:49:37;;;;;;;32.05;18.20;;;;;;;;;;5147014;27;20039;-57
2023/03/02 06:52:03;;;;;;;34.60;19.13;;;;;;;;;;5146283;27;20043;-57
2023/03/02 06:54:29;;;;;;;35.10;17.30;;;;;;;;;;5146265;27;20043;-57
2023/03/02 06:56:56;;;;;;;28.75;15.88;;;;;;;;;;5146791;27;20087;-57
2023/03/02 06:59:22;;;;;;;37.03;19.38;;;;;;;;;;5147796;27;20088;-59
2023/03/02 07:01:49;;;;;;;48.40;22.08;;;;;;;;;;5146470;27;20042;-57
2023/03/02 07:04:15;;;;;;;50.63;22.17;;;;;;;;;;5146246;27;20046;-56
2023/03/02 07:06:42;;;;;;;38.92;20.20;;;;;;;;;;5146615;27;20446;-57
2023/03/02 07:09:08;;;;;;;35.65;19.27;;;;;;;;;;5146175;27;20493;-57
2023/03/02 07:11:34;;;;;;;38.70;20.90;;;;;;;;;;5146456;27;20493;-57
2023/03/02 07:14:00;;;;;;;39.03;18.75;;;;;;;;;;5146141;27;20097;-56
2023/03/02 07:16:26;;;;;;;36.80;19.90;;;;;;;;;;5146252;27;20074;-57
2023/03/02 07:18:52;;;;;;;37.85;21.50;;;;;;;;;;5147114;27;20049;-57
2023/03/02 07:21:18;;;;;;;39.10;20.42;;;;;;;;;;5147154;27;20134;-57
2023/03/02 07:23:44;;;;;;;38.95;21.13;;;;;;;;;;5145393;27;20118;-56
2023/03/02 07:26:11;;;;;;;38.47;21.38;;;;;;;;;;5145910;27;20051;-57
2023/03/02 07:28:40;;;;;;;38.65;19.30;;;;;;;;;;5146357;27;20362;-57
2023/03/02 07:31:07;;;;;;;30.05;16.55;;;;;;;;;;5145967;27;20042;-57
2023/03/02 07:33:34;;;;;;;40.95;20.88;;;;;;;;;;5146123;27;20150;-57
2023/03/02 07:36:00;;;;;;;48.25;23.23;;;;;;;;;;5145579;27;20073;-57
2023/03/02 07:38:26;;;;;;;43.40;21.58;;;;;;;;;;5146093;27;20049;-57
2023/03/02 07:40:52;;;;;;;37.13;20.40;;;;;;;;;;5146875;27;20081;-57
2023/03/02 07:43:19;;;;;;;37.78;19.40;;;;;;;;;;5145529;27;20050;-57
2023/03/02 07:45:45;;;;;;;34.95;18.73;;;;;;;;;;5145768;27;20465;-57
2023/03/02 07:48:11;;;;;;;27.00;17.77;;;;;;;;;;5145919;27;20074;-57
2023/03/02 07:50:37;;;;;;;26.95;16.02;;;;;;;;;;5144805;27;20057;-57
2023/03/02 07:53:03;;;;;;;22.20;14.27;;;;;;;;;;5145232;27;20045;-55
2023/03/02 07:55:29;;;;;;;23.13;13.80;;;;;;;;;;5145750;27;20046;-57
2023/03/02 07:57:55;;;;;;;20.45;11.55;;;;;;;;;;5144973;27;20039;-57
2023/03/02 08:00:22;;;;;;;17.98;10.73;;;;;;;;;;5146524;27;20046;-57
2023/03/02 08:02:48;;;;;;;14.90;9.07;;;;;;;;;;5146237;27;20651;-58
2023/03/02 08:05:14;;;;;;;32.22;11.93;;;;;;;;;;5148626;27;20149;-57
2023/03/02 08:07:41;;;;;;;19.90;12.80;;;;;;;;;;5150416;27;20673;-59
2023/03/02 08:10:08;;;;;;;15.88;10.93;;;;;;;;;;5150217;27;20042;-59
2023/03/02 08:12:34;;;;;;;17.98;11.85;;;;;;;;;;5149459;27;20504;-56
2023/03/02 08:15:00;;;;;;;21.65;12.25;;;;;;;;;;5149739;27;20386;-57
2023/03/02 08:17:26;;;;;;;19.38;13.10;;;;;;;;;;5149983;27;20045;-57
2023/03/02 08:19:52;;;;;;;19.70;12.38;;;;;;;;;;5149707;27;20046;-56
2023/03/02 08:22:18;;;;;;;17.65;12.32;;;;;;;;;;5150426;27;20039;-56
2023/03/02 08:24:44;;;;;;;22.05;11.90;;;;;;;;;;5150212;27;20121;-57
2023/03/02 08:27:12;;;;;;;19.33;12.82;;;;;;;;;;5149008;27;20122;-57
2023/03/02 08:29:38;;;;;;;19.33;12.40;;;;;;;;;;5149710;27;20134;-57
2023/03/02 08:32:04;;;;;;;18.25;11.98;;;;;;;;;;5149194;27;20103;-59
2023/03/02 08:34:30;;;;;;;21.13;12.55;;;;;;;;;;5150007;27;20053;-57
2023/03/02 08:36:56;;;;;;;19.77;13.52;;;;;;;;;;5149648;27;20267;-57
2023/03/02 08:39:22;;;;;;;15.85;10.43;;;;;;;;;;5149500;27;20505;-57
2023/03/02 08:41:52;;;;;;;16.90;11.00;;;;;;;;;;5150106;27;20067;-57
2023/03/02 08:44:20;;;;;;;13.68;9.38;;;;;;;;;;5149797;27;20049;-57
2023/03/02 08:46:47;;;;;;;18.73;11.80;;;;;;;;;;5148639;27;20130;-57
2023/03/02 08:49:13;;;;;;;18.83;10.68;;;;;;;;;;5148686;27;20129;-57
2023/03/02 08:51:40;;;;;;;15.93;10.55;;;;;;;;;;5149450;27;20095;-57
2023/03/02 08:54:06;;;;;;;17.90;11.30;;;;;;;;;;5148608;27;20073;-57
2023/03/02 08:56:34;;;;;;;18.38;11.45;;;;;;;;;;5149238;27;20490;-57
2023/03/02 08:59:01;;;;;;;15.35;10.68;;;;;;;;;;5148656;27;20057;-57
2023/03/02 09:01:28;;;;;;;15.60;10.38;;;;;;;;;;5148300;27;20054;-57
2023/03/02 09:03:56;;;;;;;12.10;8.38;;;;;;;;;;5148808;27;20043;-57
2023/03/02 09:06:22;;;;;;;13.35;9.00;;;;;;;;;;5149315;27;20069;-57
2023/03/02 09:08:48;;;;;;;12.50;8.27;;;;;;;;;;5129999;27;20497;-56
2023/03/02 09:11:14;;;;;;;12.45;8.88;;;;;;;;;;5148536;27;20110;-57
2023/03/02 09:13:40;;;;;;;13.75;8.77;;;;;;;;;;5148912;27;20035;-56
2023/03/02 09:16:07;;;;;;;16.88;10.43;;;;;;;;;;5147988;27;20121;-59
2023/03/02 09:18:33;;;;;;;15.70;10.43;;;;;;;;;;5148814;27;20046;-57
2023/03/02 09:20:59;;;;;;;15.70;11.05;;;;;;;;;;5148650;27;20129;-56
2023/03/02 09:23:26;;;;;;;16.55;9.88;;;;;;;;;;5147783;27;20121;-59
2023/03/02 09:25:52;;;;;;;14.80;9.10;;;;;;;;;;5149035;27;20378;-57
2023/03/02 09:28:20;;;;;;;14.38;10.05;;;;;;;;;;5147665;27;20047;-57
2023/03/02 09:30:53;;;;;;;17.65;9.75;;;;;;;;;;5148874;27;20499;-57
2023/03/02 09:33:20;;;;;;;13.50;9.05;;;;;;;;;;5148898;27;20045;-57
2023/03/02 09:35:46;;;;;;;13.57;8.65;;;;;;;;;;5148107;27;20038;-57
2023/03/02 09:38:15;;;;;;;15.88;10.23;;;;;;;;;;5148281;27;20546;-57
2023/03/02 09:40:56;;;;;;;18.38;10.35;;;;;;;;;;5147917;27;20043;-57
2023/03/02 09:43:28;;;;;;;18.45;11.02;;;;;;;;;;5148170;27;20135;-57
2023/03/02 09:45:54;;;;;;;;;;;;;;;;;;5148395;27;20049;-57
2023/03/02 09:48:20;;;;;;;16.33;10.32;;;;;;;;;;5148070;27;20301;-57
2023/03/02 09:50:53;;;;;;;16.40;10.57;;;;;;;;;;5147507;27;20038;-57
2023/03/02 09:53:22;;;;;;;15.75;10.13;;;;;;;;;;5148740;27;20034;-57
2023/03/02 09:55:52;;;;;;;15.43;10.27;;;;;;;;;;5148898;27;20034;-57
2023/03/02 09:58:20;;;;;;;15.90;10.32;;;;;;;;;;5147946;27;20049;-57
2023/03/02 10:00:46;;;;;;;16.85;11.13;;;;;;;;;;5148236;27;20117;-57
2023/03/02 10:03:22;;;;;;;14.18;9.10;;;;;;;;;;5147617;27;20042;-58
2023/03/02 10:05:50;;;;;;;13.02;9.15;;;;;;;;;;5148063;27;20062;-57
2023/03/02 10:08:23;;;;;;;13.55;8.88;;;;;;;;;;5147849;27;20054;-57
2023/03/02 10:11:08;;;;;;;17.73;10.57;;;;;;;;;;5148345;27;20042;-58
2023/03/02 10:13:42;;;;;;;13.48;9.25;;;;;;;;;;5148356;27;20045;-57
2023/03/02 10:16:20;;;;;;;16.20;10.65;;;;;;;;;;5129185;27;20057;-57
2023/03/02 10:18:49;;;;;;;18.08;11.02;;;;;;;;;;5147254;27;20042;-57
2023/03/02 10:21:33;;;;;;;15.43;10.93;;;;;;;;;;5147810;27;20038;-57
2023/03/02 10:23:59;;;;;;;14.48;8.88;;;;;;;;;;5147656;27;20046;-57
2023/03/02 10:26:28;;;;;;;11.30;7.93;;;;;;;;;;5145874;27;20039;-56
2023/03/02 10:29:02;;;;;;;15.07;9.77;;;;;;;;;;5147220;27;20049;-56
2023/03/02 10:31:30;;;;;;;14.73;10.13;;;;;;;;;;5147447;27;20053;-57
2023/03/02 10:33:56;;;;;;;15.63;10.15;;;;;;;;;;5146704;27;20134;-57
2023/03/02 10:36:36;;;;;;;13.77;9.05;;;;;;;;;;5147581;27;20053;-57
2023/03/02 10:39:05;;;;;;;14.95;9.65;;;;;;;;;;5145677;27;20043;-58
2023/03/02 10:41:34;;;;;;;14.27;8.95;;;;;;;;;;5146338;27;20047;-57
2023/03/02 10:44:05;;;;;;;13.15;8.52;;;;;;;;;;5146331;27;20374;-57
2023/03/02 10:46:39;;;;;;;12.38;8.70;;;;;;;;;;5146612;27;20039;-57
2023/03/02 10:49:21;;;;;;;11.43;7.68;;;;;;;;;;5146786;27;20066;-57
2023/03/02 10:51:54;;;;;;;13.80;9.23;;;;;;;;;;5128975;27;20404;-56
2023/03/02 10:54:20;;;;;;;14.48;9.02;;;;;;;;;;5146798;27;20035;-59
2023/03/02 10:56:50;;;;;;;13.10;8.75;;;;;;;;;;5147064;27;20547;-56
2023/03/02 10:59:22;;;;;;;13.75;9.20;;;;;;;;;;5146724;27;20452;-57
2023/03/02 11:01:58;;;;;;;9.88;7.32;;;;;;;;;;5146718;27;20054;-57
2023/03/02 11:04:24;;;;;;;14.85;9.15;;;;;;;;;;5146994;27;20041;-57
2023/03/02 11:06:50;;;;;;;13.75;8.80;;;;;;;;;;5146314;27;20054;-57
2023/03/02 11:09:16;;;;;;;11.77;8.15;;;;;;;;;;5146693;27;20039;-57
2023/03/02 11:11:47;;;;;;;13.25;8.02;;;;;;;;;;5146713;27;20030;-57
2023/03/02 11:14:15;;;;;;;13.90;9.10;;;;;;;;;;5145770;27;20396;-57
2023/03/02 11:16:41;;;;;;;14.30;9.63;;;;;;;;;;5146707;27;20055;-57
2023/03/02 11:19:12;;;;;;;13.68;9.68;;;;;;;;;;5146486;27;20042;-57
2023/03/02 11:21:46;;;;;;;18.63;12.18;;;;;;;;;;5145696;27;20125;-57
2023/03/02 11:24:12;;;;;;;15.93;10.57;;;;;;;;;;5146532;27;20054;-57
2023/03/02 11:26:38;;;;;;;16.05;10.73;;;;;;;;;;5146280;27;20043;-57
2023/03/02 11:29:14;;;;;;;17.15;11.82;;;;;;;;;;5145301;27;20541;-57
2023/03/02 11:31:43;;;;;;;20.30;12.93;;;;;;;;;;5146132;27;20524;-57
2023/03/02 11:34:12;;;;;;;23.85;15.38;;;;;;;;;;5145608;27;20042;-57
2023/03/02 11:36:53;;;;;;;24.25;15.70;;;;;;;;;;5145511;27;20053;-57
2023/03/02 11:39:22;;;;;;;22.90;14.70;;;;;;;;;;5145810;27;20405;-57
2023/03/02 11:41:49;;;;;;;28.50;17.63;;;;;;;;;;5147269;27;20405;-58
2023/03/02 11:44:19;;;;;;;30.98;18.40;;;;;;;;;;5145764;27;20175;-57
2023/03/02 11:46:47;;;;;;;33.78;19.33;;;;;;;;;;5146396;27;20053;-56
2023/03/02 11:49:25;;;;;;;28.63;18.23;;;;;;;;;;5145520;27;20694;-57
2023/03/02 11:51:56;;;;;;;27.05;16.40;;;;;;;;;;5146468;27;20039;-57
2023/03/02 11:54:32;;;;;;;23.70;14.32;;;;;;;;;;5146304;27;20038;-56
2023/03/02 11:56:58;;;;;;;20.42;13.02;;;;;;;;;;5145096;27;20187;-57
2023/03/02 11:59:26;;;;;;;23.77;15.45;;;;;;;;;;5146184;27;20039;-57
2023/03/02 12:01:53;;;;;;;19.17;13.38;;;;;;;;;;5146808;27;20049;-57
2023/03/02 12:04:33;;;;;;;17.67;12.32;;;;;;;;;;5146275;27;20043;-56
2023/03/02 12:07:01;;;;;;;20.35;13.13;;;;;;;;;;5145924;27;20687;-57
2023/03/02 12:09:35;;;;;;;20.73;13.80;;;;;;;;;;5145761;27;20073;-57
2023/03/02 12:12:19;;;;;;;17.55;13.40;;;;;;;;;;5144860;27;20046;-57
2023/03/02 12:14:45;;;;;;;17.83;12.15;;;;;;;;;;5146279;27;20047;-57
2023/03/02 12:17:26;;;;;;;20.77;13.15;;;;;;;;;;5145381;27;20046;-57
2023/03/02 12:19:54;;;;;;;19.38;12.77;;;;;;;;;;5145531;27;20138;-57
2023/03/02 12:22:28;;;;;;;19.88;12.57;;;;;;;;;;5146100;27;20043;-57
2023/03/02 12:25:04;;;;;;;15.45;11.05;;;;;;;;;;5145163;27;20466;-57
2023/03/02 12:27:34;;;;;;;14.20;10.48;;;;;;;;;;5146041;27;20042;-57
2023/03/02 12:30:09;;;;;;;13.45;10.00;;;;;;;;;;5145825;27;20046;-56
2023/03/02 12:32:35;;;;;;;12.38;9.20;;;;;;;;;;5145281;27;20432;-57
2023/03/02 12:35:01;;;;;;;10.93;8.80;;;;;;;;;;5145978;27;20039;-57
2023/03/02 12:37:29;;;;;;;11.88;9.13;;;;;;;;;;5146199;27;20057;-57
2023/03/02 12:40:13;;;;;;;10.38;8.65;;;;;;;;;;5144523;27;20395;-57
2023/03/02 12:42:48;;;;;;;9.05;8.15;;;;;;;;;;5145043;27;20031;-57
2023/03/02 12:45:23;;;;;;;11.77;8.43;;;;;;;;;;5145099;27;20388;-57
2023/03/02 12:47:56;;;;;;;11.00;8.48;;;;;;;;;;5146162;27;20034;-55
2023/03/02 12:50:24;;;;;;;12.25;8.98;;;;;;;;;;5148324;27;20046;-55
2023/03/02 12:53:06;;;;;;;14.30;9.60;;;;;;;;;;5148971;27;20078;-56
2023/03/02 12:55:33;;;;;;;12.35;9.48;;;;;;;;;;5149525;27;20091;-56
2023/03/02 12:58:00;;;;;;;11.88;9.48;;;;;;;;;;5149272;27;20050;-55
2023/03/02 13:00:33;;;;;;;9.95;8.77;;;;;;;;;;5148774;27;20050;-56
2023/03/02 13:03:00;;;;;;;14.43;11.20;;;;;;;;;;5149292;27;20042;-60
2023/03/02 13:05:34;;;;;;;12.35;10.40;;;;;;;;;;5148905;27;20163;-58
2023/03/02 13:08:00;;;;;;;14.85;11.23;;;;;;;;;;5148445;27;20046;-56
2023/03/02 13:10:45;;;;;;;15.20;11.07;;;;;;;;;;5149475;27;20054;-56
2023/03/02 13:13:18;;;;;;;13.93;10.95;;;;;;;;;;5148875;27;20082;-56
2023/03/02 13:15:48;;;;;;;14.85;11.55;;;;;;;;;;5149052;27;20057;-56
2023/03/02 13:18:14;;;;;;;13.07;11.20;;;;;;;;;;5148861;27;20054;-57
2023/03/02 13:20:40;;;;;;;15.65;11.35;;;;;;;;;;5148488;27;20556;-55
2023/03/02 13:23:07;;;;;;;13.80;11.20;;;;;;;;;;5148466;27;20042;-56
2023/03/02 13:25:33;;;;;;;14.93;11.60;;;;;;;;;;5148327;27;20046;-56
2023/03/02 13:28:00;;;;;;;14.10;11.63;;;;;;;;;;5147410;27;20083;-56
2023/03/02 13:30:28;;;;;;;13.82;11.73;;;;;;;;;;5148777;27;20594;-56
2023/03/02 13:32:58;;;;;;;13.95;12.43;;;;;;;;;;5148370;27;20043;-56
2023/03/02 13:35:25;;;;;;;15.38;11.77;;;;;;;;;;5147811;27;20039;-56
2023/03/02 13:37:59;;;;;;;12.63;10.57;;;;;;;;;;5148860;27;20054;-56
2023/03/02 13:40:38;;;;;;;14.07;11.95;;;;;;;;;;5148520;27;20558;-56
2023/03/02 13:43:07;;;;;;;14.63;10.75;;;;;;;;;;5147011;27;20058;-56
2023/03/02 13:45:33;;;;;;;12.27;10.80;;;;;;;;;;5148103;27;20529;-56
2023/03/02 13:48:11;;;;;;;14.52;11.65;;;;;;;;;;5148029;27;20058;-56
2023/03/02 13:50:37;;;;;;;16.00;11.65;;;;;;;;;;5147647;27;20053;-57
2023/03/02 13:53:05;;;;;;;15.55;11.57;;;;;;;;;;5148368;27;20047;-56
2023/03/02 13:55:32;;;;;;;13.32;10.52;;;;;;;;;;5147687;27;20767;-57
2023/03/02 13:57:58;;;;;;;13.73;11.30;;;;;;;;;;5129265;27;20051;-56
2023/03/02 14:00:30;;;;;;;15.07;10.88;;;;;;;;;;5147894;27;20497;-56
2023/03/02 14:02:56;;;;;;;16.23;11.32;;;;;;;;;;5146634;27;20165;-56
2023/03/02 14:05:25;;;;;;;18.30;12.32;;;;;;;;;;5147963;27;20137;-56
2023/03/02 14:07:52;;;;;;;17.58;12.63;;;;;;;;;;5148574;27;20043;-57
2023/03/02 14:10:19;;;;;;;13.95;10.90;;;;;;;;;;5147699;27;20038;-56
2023/03/02 14:13:00;;;;;;;16.17;13.00;;;;;;;;;;5148079;27;20050;-55
2023/03/02 14:15:26;;;;;;;14.50;11.43;;;;;;;;;;5147895;27;20042;-56
2023/03/02 14:17:52;;;;;;;14.52;10.77;;;;;;;;;;5147034;27;20448;-56
2023/03/02 14:20:18;;;;;;;11.63;10.43;;;;;;;;;;5147731;27;20046;-56
2023/03/02 14:22:45;;;;;;;13.82;10.88;;;;;;;;;;5146599;27;20303;-58
2023/03/02 14:25:11;;;;;;;12.57;10.23;;;;;;;;;;5146370;27;20035;-56
2023/03/02 14:27:38;;;;;;;12.68;11.15;;;;;;;;;;5147353;27;20050;-56
2023/03/02 14:30:12;;;;;;;15.07;11.85;;;;;;;;;;5146850;27;20046;-57